Time;durP1;ratioP1;P1;durP2;ratioP2;P2;SDS_P1;SDS_P2;PMS_P1;PMS_P2;Temp;Humidity;BMP_temperature;BMP_pressure;BME280_temperature;BME280_humidity;BME280_pressure;Samples;Min_cycle;Max_cycle;Signal;HPM_P1;HPM_P2
2023/04/05 00:00:47;;;;;;;5.53;3.90;;;19.60;44.70;;;;;;4957712;29;20030;-75
2023/04/05 00:03:12;;;;;;;6.75;3.88;;;19.60;44.70;;;;;;4957565;28;20056;-72
2023/04/05 00:05:39;;;;;;;5.40;3.60;;;19.60;44.60;;;;;;4956463;28;20039;-72
2023/04/05 00:08:12;;;;;;;5.95;3.55;;;19.60;44.50;;;;;;4957868;28;20027;-73
2023/04/05 00:10:38;;;;;;;6.25;3.72;;;19.60;44.50;;;;;;4957775;28;20574;-73
2023/04/05 00:13:05;;;;;;;6.57;3.70;;;19.50;44.40;;;;;;4957693;28;20023;-73
2023/04/05 00:15:31;;;;;;;6.38;3.50;;;19.50;44.40;;;;;;4957588;28;20078;-73
2023/04/05 00:17:58;;;;;;;5.13;3.40;;;19.50;44.30;;;;;;4942191;28;20075;-73
2023/04/05 00:20:24;;;;;;;4.93;3.42;;;19.50;44.30;;;;;;4938348;29;20110;-73
2023/04/05 00:22:50;;;;;;;5.82;3.70;;;19.50;44.20;;;;;;4938512;29;20027;-73
2023/04/05 00:25:17;;;;;;;5.80;3.30;;;19.50;44.20;;;;;;4937961;29;20122;-73
2023/04/05 00:27:44;;;;;;;5.70;3.40;;;19.50;44.20;;;;;;4938051;29;20032;-73
2023/04/05 00:30:10;;;;;;;5.20;3.30;;;19.50;44.10;;;;;;4937944;29;20572;-73
2023/04/05 00:32:36;;;;;;;5.07;3.35;;;19.40;44.00;;;;;;4937787;29;20514;-73
2023/04/05 00:35:02;;;;;;;5.18;3.28;;;19.50;44.00;;;;;;4937910;29;20046;-74
2023/04/05 00:37:28;;;;;;;4.63;3.25;;;19.40;43.90;;;;;;4937892;29;20394;-73
2023/04/05 00:39:56;;;;;;;4.82;3.22;;;19.50;43.90;;;;;;4937770;29;20028;-73
2023/04/05 00:42:23;;;;;;;5.03;3.15;;;19.40;43.80;;;;;;4937973;29;20118;-73
2023/04/05 00:44:49;;;;;;;5.13;3.38;;;19.40;43.80;;;;;;4937887;29;20038;-73
2023/04/05 00:47:15;;;;;;;5.88;3.08;;;19.40;43.70;;;;;;4937485;29;20028;-73
2023/04/05 00:49:45;;;;;;;5.25;3.10;;;19.40;43.70;;;;;;4937787;29;20036;-73
2023/04/05 00:52:11;;;;;;;5.55;3.50;;;19.40;43.70;;;;;;4937683;29;20027;-73
2023/04/05 00:54:38;;;;;;;4.70;3.05;;;19.40;43.60;;;;;;4937474;29;20035;-73
2023/04/05 00:57:05;;;;;;;3.92;2.83;;;19.40;43.60;;;;;;4937520;29;20102;-73
2023/04/05 00:59:31;;;;;;;4.35;2.97;;;19.40;43.60;;;;;;4937594;29;20030;-73
2023/04/05 01:02:12;;;;;;;6.35;3.22;;;19.40;43.50;;;;;;4937442;29;20039;-72
2023/04/05 01:04:45;;;;;;;3.78;3.05;;;19.40;43.50;;;;;;4937626;29;20024;-73
2023/04/05 01:07:23;;;;;;;3.75;2.75;;;19.40;43.50;;;;;;4937399;29;20031;-73
2023/04/05 01:09:54;;;;;;;3.55;2.50;;;19.40;43.40;;;;;;4937426;29;20036;-72
2023/04/05 01:12:23;;;;;;;5.57;3.05;;;19.30;43.40;;;;;;4937587;29;20402;-73
2023/04/05 01:14:51;;;;;;;4.53;2.75;;;19.40;43.40;;;;;;4937178;29;20038;-73
2023/04/05 01:17:26;;;;;;;3.90;2.85;;;19.30;43.30;;;;;;4937365;29;20028;-73
2023/04/05 01:20:07;;;;;;;4.75;2.90;;;19.30;43.30;;;;;;4937504;29;20489;-73
2023/04/05 01:22:42;;;;;;;3.83;2.67;;;19.30;43.30;;;;;;4937350;29;20019;-73
2023/04/05 01:25:27;;;;;;;4.75;2.72;;;19.30;43.20;;;;;;4937421;29;20024;-72
2023/04/05 01:28:07;;;;;;;3.92;2.70;;;19.40;43.10;;;;;;4937173;29;20493;-72
2023/04/05 01:30:43;;;;;;;3.22;2.70;;;19.30;43.20;;;;;;4936933;29;20046;-73
2023/04/05 01:33:24;;;;;;;4.30;2.67;;;19.30;43.10;;;;;;4936932;29;20031;-72
2023/04/05 01:36:00;;;;;;;3.45;2.38;;;19.30;43.10;;;;;;4936907;29;20466;-72
2023/04/05 01:38:28;;;;;;;4.13;2.50;;;19.30;43.10;;;;;;4936870;29;20027;-73
2023/04/05 01:40:53;;;;;;;3.20;2.45;;;19.30;43.00;;;;;;4936812;29;20434;-72
2023/04/05 01:43:19;;;;;;;3.42;2.53;;;19.30;43.00;;;;;;4936562;29;20107;-73
2023/04/05 01:45:46;;;;;;;5.18;2.60;;;19.30;43.00;;;;;;4936708;29;20367;-72
2023/04/05 01:48:13;;;;;;;3.63;2.63;;;19.30;42.90;;;;;;4937006;29;20063;-73
2023/04/05 01:50:39;;;;;;;3.55;2.60;;;19.30;42.90;;;;;;4936971;29;20042;-73
2023/04/05 01:53:08;;;;;;;3.75;2.33;;;19.30;42.90;;;;;;4936529;29;20031;-73
2023/04/05 01:55:34;;;;;;;3.08;2.53;;;19.30;42.90;;;;;;4936315;29;20158;-72
2023/04/05 01:58:00;;;;;;;3.80;2.75;;;19.20;42.80;;;;;;4936428;29;20067;-73
2023/04/05 02:00:26;;;;;;;3.50;2.60;;;19.30;42.80;;;;;;4936543;29;20035;-73
2023/04/05 02:02:52;;;;;;;4.32;2.30;;;19.20;42.80;;;;;;4936426;29;20087;-73
2023/04/05 02:05:18;;;;;;;3.15;2.50;;;19.20;42.70;;;;;;4936571;29;20042;-73
2023/04/05 02:07:44;;;;;;;3.30;2.50;;;19.20;42.70;;;;;;4936261;29;20176;-72
2023/04/05 02:10:14;;;;;;;4.40;2.80;;;19.20;42.70;;;;;;4936168;29;20032;-72
2023/04/05 02:12:41;;;;;;;3.97;2.60;;;19.20;42.70;;;;;;4936596;29;20102;-73
2023/04/05 02:15:08;;;;;;;4.60;2.35;;;19.20;42.70;;;;;;4936287;29;20386;-72
2023/04/05 02:17:38;;;;;;;4.13;2.42;;;19.20;42.60;;;;;;4936470;29;20024;-73
2023/04/05 02:20:07;;;;;;;2.67;2.40;;;19.20;42.60;;;;;;4936218;29;20122;-73
2023/04/05 02:22:33;;;;;;;3.55;2.80;;;19.20;42.60;;;;;;4936021;29;20114;-72
2023/04/05 02:25:00;;;;;;;3.72;2.55;;;19.20;42.60;;;;;;4935960;29;20032;-72
2023/04/05 02:27:25;;;;;;;4.82;2.75;;;19.20;42.60;;;;;;4936014;29;20402;-72
2023/04/05 02:29:54;;;;;;;2.95;2.30;;;19.20;42.60;;;;;;4935230;29;20051;-73
2023/04/05 02:32:20;;;;;;;3.75;2.70;;;19.20;42.50;;;;;;4936116;29;20023;-73
2023/04/05 02:34:47;;;;;;;4.05;2.15;;;19.20;42.50;;;;;;4936226;29;20039;-73
2023/04/05 02:37:12;;;;;;;5.03;2.67;;;19.20;42.50;;;;;;4935848;29;20019;-73
2023/04/05 02:39:39;;;;;;;4.10;2.25;;;19.20;42.50;;;;;;4935803;29;20038;-73
2023/04/05 02:42:05;;;;;;;2.85;2.15;;;19.20;42.50;;;;;;4935857;29;20070;-72
2023/04/05 02:44:31;;;;;;;4.40;2.42;;;19.20;42.50;;;;;;4935828;29;20019;-73
2023/04/05 02:46:58;;;;;;;4.55;2.17;;;19.20;42.50;;;;;;4935657;29;20040;-73
2023/04/05 02:49:24;;;;;;;3.60;2.47;;;19.20;42.40;;;;;;4935763;29;20028;-73
2023/04/05 02:51:50;;;;;;;3.05;2.03;;;19.20;42.40;;;;;;4935586;29;20036;-75
2023/04/05 02:54:16;;;;;;;3.17;2.00;;;19.20;42.40;;;;;;4935763;29;20024;-75
2023/04/05 02:56:42;;;;;;;3.20;2.40;;;19.20;42.40;;;;;;4935775;29;20024;-75
2023/04/05 02:59:08;;;;;;;3.38;2.25;;;19.20;42.30;;;;;;4935481;29;20553;-73
2023/04/05 03:01:35;;;;;;;2.80;2.03;;;19.20;42.30;;;;;;4935553;29;20055;-73
2023/04/05 03:04:01;;;;;;;4.65;2.33;;;19.20;42.30;;;;;;4935788;29;20020;-73
2023/04/05 03:06:27;;;;;;;2.83;2.13;;;19.20;42.30;;;;;;4935533;29;20028;-73
2023/04/05 03:08:54;;;;;;;5.30;2.20;;;19.20;42.20;;;;;;4934467;29;20042;-73
2023/04/05 03:11:20;;;;;;;2.67;1.95;;;19.20;42.20;;;;;;4935719;29;20487;-72
2023/04/05 03:13:46;;;;;;;4.05;2.20;;;19.20;42.20;;;;;;4935345;29;20066;-73
2023/04/05 03:16:12;;;;;;;3.53;2.25;;;19.20;42.20;;;;;;4935595;29;20024;-73
2023/04/05 03:18:38;;;;;;;2.17;1.95;;;19.20;42.10;;;;;;4935505;29;20050;-72
2023/04/05 03:21:04;;;;;;;2.53;2.20;;;19.20;42.20;;;;;;4935484;29;20389;-72
2023/04/05 03:23:30;;;;;;;3.05;2.20;;;19.10;42.10;;;;;;4934418;29;20086;-76
2023/04/05 03:26:00;;;;;;;3.03;2.35;;;19.20;42.10;;;;;;4935394;29;20039;-75
2023/04/05 03:28:33;;;;;;;3.85;2.03;;;19.20;42.10;;;;;;4935502;29;20031;-76
2023/04/05 03:30:59;;;;;;;3.45;2.35;;;19.20;42.00;;;;;;4935366;29;20048;-76
2023/04/05 03:33:25;;;;;;;4.65;2.22;;;19.20;42.00;;;;;;4935369;29;20374;-73
2023/04/05 03:35:51;;;;;;;3.45;2.25;;;19.10;42.00;;;;;;4935493;29;20023;-73
2023/04/05 03:38:20;;;;;;;2.70;2.08;;;19.10;41.90;;;;;;4935339;29;20562;-73
2023/04/05 03:40:46;;;;;;;3.58;2.10;;;19.10;41.90;;;;;;4938018;29;20023;-73
2023/04/05 03:43:12;;;;;;;2.63;2.03;;;19.10;41.90;;;;;;4937959;29;20028;-72
2023/04/05 03:45:37;;;;;;;2.72;2.17;;;19.10;41.90;;;;;;4938755;29;20379;-72
2023/04/05 03:48:05;;;;;;;4.30;2.00;;;19.10;41.90;;;;;;4938743;29;20032;-73
2023/04/05 03:50:31;;;;;;;2.42;2.13;;;19.10;41.80;;;;;;4938715;29;20035;-73
2023/04/05 03:52:58;;;;;;;3.13;1.75;;;19.00;41.90;;;;;;4937663;29;20031;-73
2023/04/05 03:55:24;;;;;;;3.50;1.95;;;19.10;41.80;;;;;;4939023;29;20106;-73
2023/04/05 03:57:52;;;;;;;2.83;1.92;;;19.10;41.80;;;;;;4938587;29;20074;-73
2023/04/05 04:00:18;;;;;;;3.53;2.05;;;19.10;41.80;;;;;;4938587;29;20066;-72
2023/04/05 04:02:46;;;;;;;4.15;2.20;;;19.10;41.70;;;;;;4938433;29;20024;-73
2023/04/05 04:05:13;;;;;;;4.13;2.15;;;19.00;41.70;;;;;;4938746;29;20028;-73
2023/04/05 04:07:40;;;;;;;2.60;2.30;;;19.00;41.70;;;;;;4938422;29;20036;-72
2023/04/05 04:10:07;;;;;;;2.65;1.70;;;19.00;41.70;;;;;;4938471;29;20027;-72
2023/04/05 04:12:33;;;;;;;3.13;2.20;;;19.10;41.70;;;;;;4938098;29;20032;-72
2023/04/05 04:15:00;;;;;;;2.92;2.15;;;19.00;41.60;;;;;;4938419;29;20038;-73
2023/04/05 04:17:33;;;;;;;3.25;2.40;;;19.00;41.60;;;;;;4938291;29;20079;-73
2023/04/05 04:19:59;;;;;;;2.75;2.30;;;19.00;41.60;;;;;;4938275;29;20020;-77
2023/04/05 04:22:32;;;;;;;2.83;2.10;;;19.00;41.60;;;;;;4938105;29;20027;-76
2023/04/05 04:25:01;;;;;;;3.65;2.20;;;19.00;41.50;;;;;;4938303;29;20027;-76
2023/04/05 04:27:28;;;;;;;2.47;2.00;;;19.00;41.50;;;;;;4938201;29;20435;-78
2023/04/05 04:29:55;;;;;;;3.65;2.00;;;19.00;41.50;;;;;;4937761;29;20054;-76
2023/04/05 04:32:25;;;;;;;3.08;2.08;;;19.00;41.50;;;;;;4938420;29;20530;-76
2023/04/05 04:34:54;;;;;;;2.85;2.22;;;19.00;41.50;;;;;;4938322;29;20032;-76
2023/04/05 04:37:21;;;;;;;2.20;1.90;;;18.90;41.40;;;;;;4938181;29;20476;-72
2023/04/05 04:39:48;;;;;;;3.38;2.20;;;18.90;41.40;;;;;;4937953;29;20044;-73
2023/04/05 04:42:18;;;;;;;4.90;2.50;;;18.90;41.40;;;;;;4937892;29;20055;-73
2023/04/05 04:44:44;;;;;;;2.65;2.20;;;18.90;41.40;;;;;;4937940;29;20027;-71
2023/04/05 04:47:12;;;;;;;3.63;2.20;;;18.90;41.40;;;;;;4937869;29;20036;-72
2023/04/05 04:49:41;;;;;;;2.90;2.25;;;18.90;41.30;;;;;;4938023;29;20475;-73
2023/04/05 04:52:06;;;;;;;4.82;2.13;;;18.90;41.40;;;;;;4937211;29;20027;-73
2023/04/05 04:54:35;;;;;;;2.83;1.95;;;18.90;41.30;;;;;;4937774;29;20031;-73
2023/04/05 04:57:01;;;;;;;5.05;2.50;;;18.90;41.40;;;;;;4937521;29;20031;-72
2023/04/05 04:59:28;;;;;;;4.50;2.20;;;18.90;41.30;;;;;;4937440;29;20413;-69
2023/04/05 05:01:55;;;;;;;5.53;2.47;;;18.90;41.40;;;;;;4937649;29;20032;-72
2023/04/05 05:04:21;;;;;;;4.50;2.65;;;18.90;41.40;;;;;;4937913;29;20031;-76
2023/04/05 05:06:50;;;;;;;4.70;2.92;;;18.90;41.40;;;;;;4943305;29;20040;-71
2023/04/05 05:09:17;;;;;;;3.58;2.40;;;18.90;41.50;;;;;;4937444;29;20494;-71
2023/04/05 05:11:43;;;;;;;5.75;3.15;;;18.90;41.50;;;;;;4937578;29;20111;-73
2023/04/05 05:14:08;;;;;;;7.03;3.85;;;18.90;41.50;;;;;;4937151;29;20073;-71
2023/04/05 05:16:35;;;;;;;6.40;2.97;;;18.90;41.50;;;;;;4937280;29;20046;-73
2023/04/05 05:19:01;;;;;;;4.90;2.58;;;18.90;41.60;;;;;;4937300;29;20031;-72
2023/04/05 05:21:27;;;;;;;2.92;2.08;;;18.90;41.50;;;;;;4937132;29;20036;-73
2023/04/05 05:23:53;;;;;;;3.33;2.40;;;18.90;41.50;;;;;;4936910;29;20213;-73
2023/04/05 05:26:20;;;;;;;4.03;2.35;;;18.90;41.50;;;;;;4936877;29;20035;-72
2023/04/05 05:28:47;;;;;;;3.95;2.38;;;18.90;41.50;;;;;;4935828;29;20027;-73
2023/04/05 05:31:14;;;;;;;5.38;3.42;;;18.90;41.40;;;;;;4934983;29;20183;-72
2023/04/05 05:33:39;;;;;;;4.38;2.60;;;18.90;41.40;;;;;;4935924;29;20030;-73
2023/04/05 05:36:05;;;;;;;3.35;2.53;;;18.90;41.30;;;;;;4936776;29;20024;-72
2023/04/05 05:38:31;;;;;;;5.78;3.03;;;18.80;41.30;;;;;;4936556;29;20028;-71
2023/04/05 05:40:58;;;;;;;6.80;2.75;;;18.80;41.40;;;;;;4936583;29;20024;-70
2023/04/05 05:43:24;;;;;;;4.57;2.80;;;18.80;41.40;;;;;;4936795;29;20385;-72
2023/04/05 05:45:50;;;;;;;4.05;2.60;;;18.80;41.30;;;;;;4936570;29;20479;-71
2023/04/05 05:48:16;;;;;;;10.40;2.55;;;18.80;41.40;;;;;;4936952;29;20035;-78
2023/04/05 05:50:43;;;;;;;9.02;2.90;;;18.70;41.50;;;;;;4935944;29;20042;-71
2023/04/05 05:53:10;;;;;;;7.90;3.00;;;18.70;41.50;;;;;;4936472;29;20038;-73
2023/04/05 05:55:36;;;;;;;8.63;3.30;;;18.80;41.60;;;;;;4936590;29;20493;-73
2023/04/05 05:58:03;;;;;;;8.18;3.13;;;18.80;41.60;;;;;;4951763;29;20023;-73
2023/04/05 06:00:29;;;;;;;6.65;2.75;;;18.80;41.60;;;;;;4938541;29;20024;-71
2023/04/05 06:02:57;;;;;;;5.20;2.63;;;18.80;41.60;;;;;;4935714;29;20032;-71
2023/04/05 06:05:24;;;;;;;6.60;2.47;;;18.80;41.60;;;;;;4936550;29;20045;-71
2023/04/05 06:07:50;;;;;;;6.32;2.85;;;18.90;41.60;;;;;;4936146;29;20031;-69
2023/04/05 06:10:16;;;;;;;7.57;2.80;;;18.80;41.60;;;;;;4936240;29;20114;-69
2023/04/05 06:12:42;;;;;;;6.90;3.25;;;18.90;41.50;;;;;;4936281;29;20042;-69
2023/04/05 06:15:08;;;;;;;5.50;3.20;;;18.90;40.70;;;;;;4935964;29;20036;-67
2023/04/05 06:17:40;;;;;;;10.10;2.72;;;18.80;41.00;;;;;;4934893;29;20054;-69
2023/04/05 06:20:10;;;;;;;6.30;2.65;;;18.80;41.20;;;;;;4936188;29;20114;-71
2023/04/05 06:22:36;;;;;;;6.88;2.88;;;18.70;41.30;;;;;;4936111;29;20478;-68
2023/04/05 06:25:02;;;;;;;16.55;3.15;;;18.70;41.40;;;;;;4936222;29;20036;-69
2023/04/05 06:27:28;;;;;;;7.63;3.30;;;18.80;41.40;;;;;;4934432;29;20032;-72
2023/04/05 06:29:58;;;;;;;10.10;3.30;;;18.70;41.30;;;;;;4935695;29;20067;-69
2023/04/05 06:32:24;;;;;;;5.35;3.00;;;18.80;41.30;;;;;;4936001;29;20107;-68
2023/04/05 06:34:50;;;;;;;8.75;3.63;;;18.80;41.40;;;;;;4936007;29;20023;-68
2023/04/05 06:37:16;;;;;;;7.47;2.78;;;18.70;40.90;;;;;;4935764;29;20387;-69
2023/04/05 06:39:43;;;;;;;4.20;2.80;;;18.70;41.10;;;;;;4935908;29;20035;-69
2023/04/05 06:42:09;;;;;;;5.85;2.92;;;18.70;41.20;;;;;;4935886;29;20051;-69
2023/04/05 06:44:35;;;;;;;4.20;2.45;;;18.70;41.10;;;;;;4936101;29;20035;-69
2023/04/05 06:47:03;;;;;;;6.05;2.95;;;18.70;41.10;;;;;;4935708;29;20039;-70
2023/04/05 06:49:29;;;;;;;6.20;2.88;;;18.70;41.10;;;;;;4935793;29;20024;-72
2023/04/05 06:51:56;;;;;;;5.28;2.90;;;18.70;41.10;;;;;;4940882;28;20075;-71
2023/04/05 06:54:23;;;;;;;3.10;2.35;;;18.70;41.20;;;;;;4939919;29;20027;-70
2023/04/05 06:56:50;;;;;;;6.78;3.10;;;18.80;41.10;;;;;;5090361;23;20066;-69
2023/04/05 06:59:16;;;;;;;9.52;3.10;;;18.80;41.20;;;;;;4954925;28;20027;-69
2023/04/05 07:01:43;;;;;;;5.00;2.70;;;18.80;41.20;;;;;;4955146;28;20098;-69
2023/04/05 07:04:09;;;;;;;4.55;2.83;;;18.80;41.20;;;;;;4954767;29;20054;-69
2023/04/05 07:06:37;;;;;;;4.00;2.45;;;18.80;41.20;;;;;;4954777;28;20038;-69
2023/04/05 07:09:05;;;;;;;5.72;2.85;;;18.90;41.20;;;;;;4954894;28;20434;-70
2023/04/05 07:11:31;;;;;;;8.48;2.72;;;18.80;41.20;;;;;;4955179;28;20031;-70
2023/04/05 07:13:58;;;;;;;4.47;2.42;;;18.80;40.60;;;;;;4954733;28;20031;-69
2023/04/05 07:16:25;;;;;;;4.70;2.30;;;18.80;40.70;;;;;;4958421;28;20082;-70
2023/04/05 07:18:50;;;;;;;6.88;2.70;;;18.80;40.90;;;;;;4958542;28;20016;-72
2023/04/05 07:21:17;;;;;;;3.13;2.20;;;18.80;40.90;;;;;;4958384;29;20061;-72
2023/04/05 07:23:43;;;;;;;3.30;2.33;;;18.80;40.90;;;;;;4958560;28;20023;-72
2023/04/05 07:26:11;;;;;;;4.60;2.70;;;18.70;40.90;;;;;;4958873;29;20059;-72
2023/04/05 07:28:37;;;;;;;3.60;2.53;;;18.80;40.90;;;;;;4958325;28;20079;-72
2023/04/05 07:31:04;;;;;;;4.18;2.50;;;18.80;40.80;;;;;;4958208;28;20090;-71
2023/04/05 07:33:30;;;;;;;3.88;2.70;;;18.80;40.70;;;;;;4958156;28;20058;-72
2023/04/05 07:35:56;;;;;;;6.03;2.55;;;18.80;40.50;;;;;;4958230;28;20057;-73
2023/04/05 07:38:22;;;;;;;3.47;2.50;;;18.80;40.40;;;;;;4958185;28;20027;-71
2023/04/05 07:40:49;;;;;;;5.38;2.55;;;18.80;40.30;;;;;;4956845;29;20027;-71
2023/04/05 07:43:17;;;;;;;3.58;2.38;;;18.80;40.30;;;;;;4958278;28;20035;-69
2023/04/05 07:45:43;;;;;;;4.40;2.60;;;18.80;40.30;;;;;;4958236;28;20054;-69
2023/04/05 07:48:09;;;;;;;6.95;2.63;;;18.70;40.30;;;;;;4957941;28;20425;-70
2023/04/05 07:50:38;;;;;;;4.15;2.60;;;18.80;40.30;;;;;;4957958;28;20126;-70
2023/04/05 07:53:04;;;;;;;5.00;2.38;;;18.70;40.30;;;;;;4958038;28;20075;-70
2023/04/05 07:55:30;;;;;;;5.47;2.45;;;18.80;40.20;;;;;;4957871;28;20019;-70
2023/04/05 07:57:57;;;;;;;15.82;2.88;;;18.70;40.20;;;;;;4957767;29;20058;-70
2023/04/05 08:00:26;;;;;;;5.28;2.55;;;18.70;39.90;;;;;;4957805;28;20034;-69
2023/04/05 08:02:52;;;;;;;3.75;2.45;;;18.70;40.10;;;;;;4957757;29;20027;-69
2023/04/05 08:05:17;;;;;;;7.55;2.63;;;18.70;40.00;;;;;;4957713;29;20124;-70
2023/04/05 08:07:43;;;;;;;7.80;2.60;;;18.70;40.00;;;;;;4957455;29;20034;-71
2023/04/05 08:10:10;;;;;;;6.50;3.30;;;18.70;40.10;;;;;;4956103;29;20036;-75
2023/04/05 08:12:36;;;;;;;7.32;2.60;;;18.70;40.00;;;;;;4957247;28;20367;-70
2023/04/05 08:15:03;;;;;;;3.85;2.30;;;18.70;40.00;;;;;;4957399;29;20095;-69
2023/04/05 08:17:29;;;;;;;3.40;2.30;;;18.70;40.00;;;;;;4957297;28;20090;-69
2023/04/05 08:19:57;;;;;;;3.10;2.17;;;18.70;40.00;;;;;;4957291;29;20486;-69
2023/04/05 08:22:27;;;;;;;3.80;2.33;;;18.70;40.10;;;;;;4957447;28;20502;-69
2023/04/05 08:24:53;;;;;;;3.72;2.20;;;18.70;40.20;;;;;;4957353;28;20030;-70
2023/04/05 08:27:20;;;;;;;2.65;1.98;;;18.80;40.00;;;;;;4956218;28;20490;-69
2023/04/05 08:29:47;;;;;;;4.75;2.33;;;18.80;40.00;;;;;;5040958;23;20074;-68
2023/04/05 08:32:14;;;;;;;2.33;1.95;;;18.80;40.30;;;;;;4957093;28;20118;-70
2023/04/05 08:34:41;;;;;;;4.43;2.50;;;18.90;40.30;;;;;;4957086;29;20035;-69
2023/04/05 08:37:07;;;;;;;3.35;2.30;;;18.90;40.40;;;;;;4957229;28;20473;-69
2023/04/05 08:39:39;;;;;;;7.82;2.60;;;18.90;40.40;;;;;;4957085;29;20551;-69
2023/04/05 08:42:24;;;;;;;4.63;2.40;;;18.90;40.40;;;;;;4956920;29;20042;-68
2023/04/05 08:44:51;;;;;;;3.63;2.17;;;18.90;40.30;;;;;;4957305;28;20035;-69
2023/04/05 08:47:22;;;;;;;3.47;2.10;;;19.00;40.30;;;;;;4957103;29;20042;-69
2023/04/05 08:49:48;;;;;;;3.30;2.20;;;19.00;40.50;;;;;;4956847;28;20441;-69
2023/04/05 08:52:15;;;;;;;5.00;2.22;;;19.00;40.50;;;;;;4956743;28;20027;-69
2023/04/05 08:54:41;;;;;;;4.95;2.35;;;19.10;40.50;;;;;;4956781;28;20031;-69
2023/04/05 08:57:08;;;;;;;3.13;2.30;;;19.10;40.50;;;;;;4956549;28;20019;-69
2023/04/05 08:59:39;;;;;;;2.45;2.00;;;19.20;40.40;;;;;;4956775;28;20028;-69
2023/04/05 09:02:15;;;;;;;2.75;2.00;;;19.20;40.50;;;;;;4956786;28;20023;-69
2023/04/05 09:04:43;;;;;;;4.18;2.10;;;19.20;40.50;;;;;;4956702;28;20027;-69
2023/04/05 09:07:12;;;;;;;4.30;2.50;;;19.20;40.50;;;;;;4957053;28;20192;-70
2023/04/05 09:09:41;;;;;;;3.35;2.38;;;19.30;40.40;;;;;;4956648;28;20481;-70
2023/04/05 09:12:07;;;;;;;4.55;2.17;;;19.30;40.20;;;;;;4956468;28;20027;-70
2023/04/05 09:14:33;;;;;;;5.13;2.50;;;19.20;40.20;;;;;;4956398;28;20059;-69
2023/04/05 09:17:02;;;;;;;3.80;2.28;;;19.20;40.30;;;;;;4956382;28;20059;-69
2023/04/05 09:19:28;;;;;;;4.30;2.30;;;19.20;40.20;;;;;;4955202;29;20389;-69
2023/04/05 09:22:04;;;;;;;4.35;2.30;;;19.20;40.30;;;;;;4956168;28;20389;-69
2023/04/05 09:24:40;;;;;;;4.03;2.22;;;19.20;40.40;;;;;;4956423;28;20023;-69
2023/04/05 09:27:12;;;;;;;2.63;1.95;;;19.20;40.40;;;;;;4956146;28;20404;-69
2023/04/05 09:29:40;;;;;;;3.60;1.92;;;19.20;40.30;;;;;;4955985;29;20051;-70
2023/04/05 09:32:07;;;;;;;3.00;2.30;;;19.20;40.40;;;;;;4955944;28;20031;-69
2023/04/05 09:34:37;;;;;;;3.30;2.38;;;19.30;40.40;;;;;;4955861;29;20055;-70
2023/04/05 09:37:15;;;;;;;3.38;2.50;;;19.30;40.30;;;;;;4955269;28;20354;-69
2023/04/05 09:39:41;;;;;;;2.50;2.00;;;19.30;40.20;;;;;;4955995;28;20477;-70
2023/04/05 09:42:18;;;;;;;5.65;2.10;;;19.20;40.40;;;;;;4955879;28;20039;-70
2023/04/05 09:44:51;;;;;;;2.85;2.22;;;19.20;40.40;;;;;;4955559;29;20023;-70
2023/04/05 09:47:22;;;;;;;3.63;2.15;;;19.30;40.40;;;;;;4955630;28;20045;-69
2023/04/05 09:49:48;;;;;;;4.97;2.30;;;19.20;40.40;;;;;;4955638;28;20023;-70
2023/04/05 09:52:41;;;;;;;3.60;2.10;;;19.20;40.40;;;;;;4955591;28;20557;-70
2023/04/05 09:55:07;;;;;;;3.58;2.05;;;19.30;40.40;;;;;;4954015;28;20107;-70
2023/04/05 09:57:37;;;;;;;2.60;1.92;;;19.30;40.50;;;;;;4955391;28;20086;-69
2023/04/05 10:00:18;;;;;;;3.80;1.88;;;19.30;40.60;;;;;;4955603;28;20027;-70
2023/04/05 10:02:46;;;;;;;4.75;2.08;;;19.30;40.60;;;;;;4955764;28;20042;-69
2023/04/05 10:05:14;;;;;;;3.05;2.10;;;19.30;40.70;;;;;;4955445;28;20094;-70
2023/04/05 10:07:40;;;;;;;4.47;2.75;;;19.40;40.70;;;;;;4955425;28;20027;-69
2023/04/05 10:10:08;;;;;;;3.13;2.58;;;19.40;40.60;;;;;;4955744;28;20381;-70
2023/04/05 10:12:37;;;;;;;4.75;2.38;;;19.40;40.40;;;;;;4955413;28;20019;-70
2023/04/05 10:15:05;;;;;;;3.85;2.22;;;19.40;40.50;;;;;;4955427;28;20025;-69
2023/04/05 10:17:38;;;;;;;3.03;2.28;;;19.40;40.50;;;;;;4955377;28;20081;-70
2023/04/05 10:20:13;;;;;;;3.50;2.35;;;19.40;40.50;;;;;;4955641;28;20027;-70
2023/04/05 10:22:54;;;;;;;4.45;2.47;;;19.30;40.50;;;;;;4955606;28;20024;-70
2023/04/05 10:25:33;;;;;;;4.25;2.65;;;19.40;40.20;;;;;;4955775;28;20122;-70
2023/04/05 10:28:13;;;;;;;4.97;2.80;;;19.30;40.00;;;;;;4955259;28;20038;-70
2023/04/05 10:30:51;;;;;;;2.40;2.20;;;19.30;39.90;;;;;;4954647;28;20525;-70
2023/04/05 10:33:27;;;;;;;4.10;2.22;;;19.20;40.00;;;;;;4954883;29;20090;-71
2023/04/05 10:36:02;;;;;;;3.65;2.55;;;19.20;40.20;;;;;;4955287;28;20078;-70
2023/04/05 10:38:34;;;;;;;3.65;2.30;;;19.20;40.30;;;;;;4955406;28;20086;-70
2023/04/05 10:41:13;;;;;;;3.42;2.30;;;19.20;40.40;;;;;;4955126;28;20078;-69
2023/04/05 10:43:39;;;;;;;2.88;2.17;;;19.20;40.20;;;;;;4955279;29;20116;-69
2023/04/05 10:46:06;;;;;;;2.42;1.88;;;19.20;40.40;;;;;;4954909;28;20035;-70
2023/04/05 10:49:10;;;;;;;2.83;2.17;;;19.20;40.50;;;;;;4953534;29;20370;-72
2023/04/05 10:51:37;;;;;;;4.35;1.90;;;19.20;40.50;;;;;;4955347;28;20023;-70
2023/04/05 10:54:06;;;;;;;3.05;2.25;;;19.30;40.60;;;;;;4954902;28;20027;-70
2023/04/05 10:56:33;;;;;;;4.90;2.10;;;19.20;40.60;;;;;;4955199;28;20047;-71
2023/04/05 10:58:59;;;;;;;5.22;2.30;;;19.30;40.70;;;;;;4954800;28;20449;-71
2023/04/05 11:01:26;;;;;;;3.83;2.40;;;19.30;40.70;;;;;;4954874;28;20055;-71
2023/04/05 11:03:53;;;;;;;3.53;2.10;;;19.30;40.60;;;;;;4954797;28;20027;-71
2023/04/05 11:06:24;;;;;;;5.20;2.17;;;19.30;40.50;;;;;;4955018;28;20086;-71
2023/04/05 11:09:20;;;;;;;3.67;2.03;;;19.40;40.50;;;;;;4954750;28;20366;-71
2023/04/05 11:11:49;;;;;;;3.40;2.05;;;19.40;40.60;;;;;;4951327;28;20035;-71
2023/04/05 11:14:21;;;;;;;3.13;2.10;;;19.40;40.60;;;;;;4954770;28;20373;-71
2023/04/05 11:16:53;;;;;;;6.78;2.20;;;19.40;40.50;;;;;;4954630;28;20036;-71
2023/04/05 11:19:19;;;;;;;3.30;2.33;;;19.40;40.60;;;;;;4954983;28;20035;-71
2023/04/05 11:21:45;;;;;;;3.75;2.45;;;19.40;40.60;;;;;;4953456;29;20065;-71
2023/04/05 11:24:15;;;;;;;3.28;2.38;;;19.40;40.60;;;;;;4954178;29;20450;-72
2023/04/05 11:26:47;;;;;;;3.55;2.20;;;19.40;40.50;;;;;;4953362;28;20043;-73
2023/04/05 11:29:14;;;;;;;4.82;2.03;;;19.40;40.50;;;;;;4953452;29;20051;-72
2023/04/05 11:34:23;;;;;;;5.85;2.92;;;19.40;40.60;;;;;;4953312;29;20047;-69
2023/04/05 11:36:49;;;;;;;3.42;2.30;;;19.40;40.40;;;;;;4951858;29;20046;-71
2023/04/05 11:41:55;;;;;;;3.20;2.45;;;19.40;40.60;;;;;;5000974;23;20071;-78
2023/04/05 11:44:24;;;;;;;4.15;2.30;;;19.40;40.70;;;;;;4945614;28;20491;-80
2023/04/05 11:47:08;;;;;;;3.30;2.60;;;19.40;40.70;;;;;;4954385;29;20043;-69
2023/04/05 11:49:34;;;;;;;3.80;2.40;;;19.40;40.60;;;;;;4954572;28;20484;-72
2023/04/05 11:52:10;;;;;;;4.88;2.38;;;19.40;40.60;;;;;;4954295;29;20147;-76
2023/04/05 11:54:36;;;;;;;4.88;2.47;;;19.50;40.70;;;;;;4954675;28;20019;-73
2023/04/05 11:57:02;;;;;;;2.75;2.38;;;19.50;40.60;;;;;;4954366;29;20043;-72
2023/04/05 11:59:33;;;;;;;3.97;2.58;;;19.50;40.70;;;;;;4954308;29;20031;-74
2023/04/05 12:02:05;;;;;;;6.85;2.78;;;19.40;40.50;;;;;;4955865;28;20041;-74
2023/04/05 12:04:31;;;;;;;6.20;2.80;;;19.50;40.30;;;;;;4958053;28;20034;-73
2023/04/05 12:07:17;;;;;;;5.57;2.90;;;19.40;40.40;;;;;;4957502;28;20039;-69
2023/04/05 12:10:15;;;;;;;8.60;3.60;;;19.40;40.20;;;;;;4957660;28;20118;-73
2023/04/05 12:12:43;;;;;;;8.45;4.00;;;19.40;40.40;;;;;;4957975;28;20046;-74
2023/04/05 12:15:13;;;;;;;6.45;3.20;;;19.40;40.30;;;;;;4957487;28;20485;-74
2023/04/05 12:17:43;;;;;;;6.28;3.17;;;19.40;40.20;;;;;;4957937;28;20023;-73
2023/04/05 12:20:11;;;;;;;10.35;4.13;;;19.40;40.40;;;;;;4957686;28;20027;-76
2023/04/05 12:22:37;;;;;;;6.00;3.28;;;19.40;40.40;;;;;;4959295;28;20031;-74
2023/04/05 12:25:04;;;;;;;4.50;2.92;;;19.40;40.50;;;;;;4956130;29;20493;-75
2023/04/05 12:27:29;;;;;;;6.85;3.40;;;19.40;40.60;;;;;;4957000;28;20035;-75
2023/04/05 12:30:10;;;;;;;4.18;2.70;;;19.40;40.70;;;;;;4957200;28;20031;-75
2023/04/05 12:32:54;;;;;;;4.97;3.10;;;19.40;40.70;;;;;;4957452;28;20031;-75
2023/04/05 12:35:23;;;;;;;5.28;3.08;;;19.40;40.70;;;;;;4957245;28;20023;-74
2023/04/05 12:37:51;;;;;;;4.00;3.03;;;19.40;40.70;;;;;;4957339;28;20020;-74
2023/04/05 12:40:22;;;;;;;4.68;3.00;;;19.40;40.70;;;;;;4956853;28;20071;-74
2023/04/05 12:42:48;;;;;;;4.32;3.00;;;19.40;40.70;;;;;;4957217;28;20106;-74
2023/04/05 12:45:14;;;;;;;4.47;3.10;;;19.50;40.70;;;;;;4957037;28;20485;-75
2023/04/05 12:47:47;;;;;;;5.35;2.67;;;19.40;40.80;;;;;;4956811;28;20031;-75
2023/04/05 12:50:15;;;;;;;;;;;19.50;40.80;;;;;;4957758;29;20137;-74
2023/04/05 12:52:57;;;;;;;4.13;2.78;;;19.50;40.70;;;;;;4956408;29;19969;-74
2023/04/05 12:55:23;;;;;;;5.72;3.10;;;19.50;40.90;;;;;;4957337;28;20031;-74
2023/04/05 12:58:01;;;;;;;3.15;2.67;;;19.50;40.80;;;;;;4956761;28;20035;-74
2023/04/05 13:00:30;;;;;;;5.07;3.20;;;19.50;40.90;;;;;;4956935;28;20019;-75